createdAt,value
2019-02-15T00:00:55.290Z,1027.90
2019-02-15T00:01:55.274Z,1027.92
2019-02-15T00:02:55.265Z,1027.88
2019-02-15T00:03:55.258Z,1027.83
2019-02-15T00:04:55.247Z,1027.85
2019-02-15T00:05:55.230Z,1027.82
2019-02-15T00:06:55.221Z,1027.89
2019-02-15T00:07:55.203Z,1027.84
2019-02-15T00:08:55.193Z,1027.85
2019-02-15T00:09:55.193Z,1027.87
2019-02-15T00:10:55.172Z,1027.91
2019-02-15T00:11:55.166Z,1027.88
2019-02-15T00:12:55.155Z,1027.89
2019-02-15T00:13:55.142Z,1027.87
2019-02-15T00:14:55.130Z,1027.88
2019-02-15T00:15:55.121Z,1027.87
2019-02-15T00:16:55.106Z,1027.81
2019-02-15T00:17:55.101Z,1027.82
2019-02-15T00:18:55.089Z,1027.84
2019-02-15T00:19:55.074Z,1027.83
2019-02-15T00:20:55.068Z,1027.82
2019-02-15T00:21:55.055Z,1027.83
2019-02-15T00:22:55.052Z,1027.83
2019-02-15T00:23:55.028Z,1027.82
2019-02-15T00:24:55.023Z,1027.79
2019-02-15T00:25:55.007Z,1027.79
2019-02-15T00:26:54.996Z,1027.79
2019-02-15T00:27:54.986Z,1027.78
2019-02-15T00:28:54.973Z,1027.79
2019-02-15T00:29:54.962Z,1027.76
2019-02-15T00:30:54.953Z,1027.74
2019-02-15T00:31:54.942Z,1027.78
2019-02-15T00:32:54.928Z,1027.76
2019-02-15T00:33:54.915Z,1027.74
2019-02-15T00:34:54.909Z,1027.77
2019-02-15T00:35:54.897Z,1027.79
2019-02-15T00:36:54.888Z,1027.76
2019-02-15T00:37:54.877Z,1027.77
2019-02-15T00:38:54.862Z,1027.77
2019-02-15T00:39:54.850Z,1027.84
2019-02-15T00:40:54.832Z,1027.85
2019-02-15T00:41:54.835Z,1027.83
2019-02-15T00:42:54.821Z,1027.85
2019-02-15T00:43:54.805Z,1027.84
2019-02-15T00:44:54.798Z,1027.80
2019-02-15T00:45:54.773Z,1027.82
2019-02-15T00:46:54.768Z,1027.81
2019-02-15T00:47:54.757Z,1027.83
2019-02-15T00:48:54.744Z,1027.77
2019-02-15T00:49:54.738Z,1027.79
2019-02-15T00:50:54.725Z,1027.81
2019-02-15T00:51:54.709Z,1027.80
2019-02-15T00:52:54.701Z,1027.81
2019-02-15T00:53:54.694Z,1027.87
2019-02-15T00:54:54.679Z,1027.83
2019-02-15T00:55:54.668Z,1027.85
2019-02-15T00:56:54.656Z,1027.87
2019-02-15T00:57:54.641Z,1027.88
2019-02-15T00:58:54.628Z,1027.85
2019-02-15T00:59:54.619Z,1027.90
2019-02-15T01:00:54.607Z,1027.89
2019-02-15T01:01:54.599Z,1027.87
2019-02-15T01:02:54.590Z,1027.92
2019-02-15T01:03:54.578Z,1027.90
2019-02-15T01:04:54.581Z,1027.94
2019-02-15T01:05:54.549Z,1027.92
2019-02-15T01:06:54.535Z,1027.90
2019-02-15T01:07:54.531Z,1027.89
2019-02-15T01:08:54.521Z,1027.87
2019-02-15T01:09:54.502Z,1027.90
2019-02-15T01:10:54.493Z,1027.88
2019-02-15T01:11:54.484Z,1027.87
2019-02-15T01:12:54.469Z,1027.86
2019-02-15T01:13:54.465Z,1027.87
2019-02-15T01:14:54.449Z,1027.86
2019-02-15T01:15:54.436Z,1027.84
2019-02-15T01:16:54.424Z,1027.84
2019-02-15T01:17:54.410Z,1027.81
2019-02-15T01:18:54.398Z,1027.83
2019-02-15T01:19:54.390Z,1027.81
2019-02-15T01:20:54.374Z,1027.85
2019-02-15T01:21:54.371Z,1027.82
2019-02-15T01:22:54.354Z,1027.79
2019-02-15T01:23:54.337Z,1027.79
2019-02-15T01:24:54.322Z,1027.78
2019-02-15T01:25:54.320Z,1027.75
2019-02-15T01:26:54.308Z,1027.77
2019-02-15T01:27:54.296Z,1027.76
2019-02-15T01:28:54.294Z,1027.73
2019-02-15T01:29:54.273Z,1027.70
2019-02-15T01:30:54.254Z,1027.71
2019-02-15T01:31:54.245Z,1027.72
2019-02-15T01:32:54.234Z,1027.70
2019-02-15T01:33:54.226Z,1027.67
2019-02-15T01:34:54.214Z,1027.68
2019-02-15T01:35:54.203Z,1027.73
2019-02-15T01:36:54.191Z,1027.72
2019-02-15T01:37:54.181Z,1027.72
2019-02-15T01:38:54.161Z,1027.68
2019-02-15T01:39:54.158Z,1027.61
2019-02-15T01:40:54.139Z,1027.62
2019-02-15T01:41:54.130Z,1027.61
2019-02-15T01:42:54.121Z,1027.56
2019-02-15T01:43:54.105Z,1027.57
2019-02-15T01:44:54.149Z,1027.52
2019-02-15T01:45:54.088Z,1027.52
2019-02-15T01:46:54.078Z,1027.47
2019-02-15T01:47:54.063Z,1027.51
2019-02-15T01:48:54.051Z,1027.48
2019-02-15T01:49:54.032Z,1027.49
2019-02-15T01:50:54.022Z,1027.45
2019-02-15T01:51:54.010Z,1027.47
2019-02-15T01:52:53.994Z,1027.47
2019-02-15T01:53:53.992Z,1027.42
2019-02-15T01:54:53.979Z,1027.45
2019-02-15T01:55:53.968Z,1027.44
2019-02-15T01:56:53.950Z,1027.44
2019-02-15T01:57:53.942Z,1027.38
2019-02-15T01:58:53.929Z,1027.41
2019-02-15T01:59:53.917Z,1027.41
2019-02-15T02:00:53.905Z,1027.38
2019-02-15T02:01:53.892Z,1027.36
2019-02-15T02:02:53.880Z,1027.37
2019-02-15T02:03:53.869Z,1027.35
2019-02-15T02:04:53.856Z,1027.34
2019-02-15T02:05:53.849Z,1027.32
2019-02-15T02:06:53.835Z,1027.32
2019-02-15T02:07:53.823Z,1027.32
2019-02-15T02:08:53.809Z,1027.30
2019-02-15T02:09:53.799Z,1027.34
2019-02-15T02:10:53.784Z,1027.28
2019-02-15T02:11:53.775Z,1027.24
2019-02-15T02:12:53.762Z,1027.28
2019-02-15T02:13:53.749Z,1027.23
2019-02-15T02:14:53.741Z,1027.24
2019-02-15T02:15:53.728Z,1027.23
2019-02-15T02:16:53.723Z,1027.25
2019-02-15T02:17:53.704Z,1027.25
2019-02-15T02:18:53.695Z,1027.26
2019-02-15T02:19:53.680Z,1027.22
2019-02-15T02:20:53.682Z,1027.24
2019-02-15T02:21:53.654Z,1027.20
2019-02-15T02:22:53.642Z,1027.19
2019-02-15T02:23:53.630Z,1027.16
2019-02-15T02:24:53.618Z,1027.16
2019-02-15T02:25:53.606Z,1027.17
2019-02-15T02:26:53.597Z,1027.17
2019-02-15T02:27:53.578Z,1027.19
2019-02-15T02:28:53.581Z,1027.14
2019-02-15T02:29:53.554Z,1027.16
2019-02-15T02:30:53.550Z,1027.17
2019-02-15T02:31:53.532Z,1027.16
2019-02-15T02:32:53.518Z,1027.11
2019-02-15T02:33:53.509Z,1027.17
2019-02-15T02:34:53.491Z,1027.12
2019-02-15T02:35:53.480Z,1027.13
2019-02-15T02:36:53.470Z,1027.16
2019-02-15T02:37:53.464Z,1027.14
2019-02-15T02:38:53.452Z,1027.09
2019-02-15T02:39:53.440Z,1027.09
2019-02-15T02:40:53.426Z,1027.06
2019-02-15T02:41:53.411Z,1027.05
2019-02-15T02:42:53.401Z,1027.02
2019-02-15T02:43:59.467Z,1027.04
2019-02-15T02:44:53.379Z,1027.02
2019-02-15T02:45:53.375Z,1027.04
2019-02-15T02:46:53.353Z,1027.03
2019-02-15T02:47:53.343Z,1027.06
2019-02-15T02:48:53.328Z,1027.04
2019-02-15T02:49:53.318Z,1027.00
2019-02-15T02:50:53.307Z,1027.02
2019-02-15T02:51:53.294Z,1027.00
2019-02-15T02:52:53.287Z,1027.05
2019-02-15T02:53:53.269Z,1027.07
2019-02-15T02:54:53.256Z,1027.06
2019-02-15T02:55:53.244Z,1027.04
2019-02-15T02:56:53.278Z,1027.07
2019-02-15T02:57:53.227Z,1027.04
2019-02-15T02:58:53.211Z,1027.08
2019-02-15T02:59:53.198Z,1027.07
2019-02-15T03:00:53.180Z,1027.08
2019-02-15T03:01:53.173Z,1027.06
2019-02-15T03:02:53.162Z,1027.08
2019-02-15T03:03:53.156Z,1027.08
2019-02-15T03:04:53.145Z,1027.07
2019-02-15T03:05:53.129Z,1027.05
2019-02-15T03:06:53.112Z,1027.02
2019-02-15T03:07:53.102Z,1027.03
2019-02-15T03:08:53.086Z,1027.03
2019-02-15T03:09:53.085Z,1027.02
2019-02-15T03:10:53.073Z,1027.03
2019-02-15T03:11:53.076Z,1026.95
2019-02-15T03:12:53.042Z,1026.96
2019-02-15T03:13:53.026Z,1026.99
2019-02-15T03:14:53.014Z,1026.98
2019-02-15T03:15:53.015Z,1026.96
2019-02-15T03:16:52.997Z,1027.00
2019-02-15T03:17:52.985Z,1026.97
2019-02-15T03:18:52.965Z,1026.96
2019-02-15T03:19:52.954Z,1026.98
2019-02-15T03:20:52.942Z,1026.95
2019-02-15T03:21:52.932Z,1026.93
2019-02-15T03:22:52.943Z,1026.91
2019-02-15T03:23:52.911Z,1026.95
2019-02-15T03:24:52.896Z,1026.93
2019-02-15T03:25:52.887Z,1026.96
2019-02-15T03:26:52.871Z,1026.96
2019-02-15T03:27:52.864Z,1026.97
2019-02-15T03:28:52.845Z,1026.96
2019-02-15T03:29:52.836Z,1026.98
2019-02-15T03:30:52.895Z,1027.00
2019-02-15T03:31:52.848Z,1026.94
2019-02-15T03:32:52.800Z,1026.95
2019-02-15T03:33:52.788Z,1026.96
2019-02-15T03:34:52.780Z,1026.92
2019-02-15T03:35:52.762Z,1026.95
2019-02-15T03:36:52.751Z,1026.96
2019-02-15T03:37:52.740Z,1026.97
2019-02-15T03:38:52.728Z,1026.96
2019-02-15T03:39:52.719Z,1026.97
2019-02-15T03:40:52.711Z,1026.91
2019-02-15T03:41:52.690Z,1026.95
2019-02-15T03:42:52.680Z,1026.95
2019-02-15T03:43:52.666Z,1026.91
2019-02-15T03:44:52.681Z,1026.90
2019-02-15T03:45:52.649Z,1026.85
2019-02-15T03:46:52.626Z,1026.91
2019-02-15T03:47:52.620Z,1026.91
2019-02-15T03:48:52.609Z,1026.88
2019-02-15T03:49:52.590Z,1026.94
2019-02-15T03:50:52.578Z,1026.92
2019-02-15T03:51:52.563Z,1026.92
2019-02-15T03:52:52.558Z,1026.92
2019-02-15T03:53:52.545Z,1026.89
2019-02-15T03:54:52.532Z,1026.88
2019-02-15T03:55:52.523Z,1026.84
2019-02-15T03:56:52.512Z,1026.87
2019-02-15T03:57:52.494Z,1026.88
2019-02-15T03:58:52.485Z,1026.93
2019-02-15T03:59:52.462Z,1026.89
2019-02-15T04:00:52.460Z,1026.92
2019-02-15T04:01:52.449Z,1026.85
2019-02-15T04:02:52.437Z,1026.89
2019-02-15T04:03:52.423Z,1026.92
2019-02-15T04:04:52.425Z,1026.88
2019-02-15T04:05:52.405Z,1026.85
2019-02-15T04:06:52.391Z,1026.88
2019-02-15T04:07:52.381Z,1026.84
2019-02-15T04:08:52.364Z,1026.88
2019-02-15T04:09:52.348Z,1026.88
2019-02-15T04:10:52.341Z,1026.88
2019-02-15T04:11:52.324Z,1026.91
2019-02-15T04:12:52.311Z,1026.91
2019-02-15T04:13:52.302Z,1026.95
2019-02-15T04:14:52.299Z,1026.92
2019-02-15T04:15:52.280Z,1026.93
2019-02-15T04:16:52.266Z,1026.91
2019-02-15T04:17:52.251Z,1026.96
2019-02-15T04:18:52.241Z,1026.95
2019-02-15T04:19:52.242Z,1026.93
2019-02-15T04:20:52.217Z,1026.93
2019-02-15T04:21:52.208Z,1026.94
2019-02-15T04:22:52.192Z,1026.98
2019-02-15T04:23:52.177Z,1026.98
2019-02-15T04:24:52.167Z,1026.96
2019-02-15T04:25:52.165Z,1027.01
2019-02-15T04:26:52.145Z,1026.99
2019-02-15T04:27:52.142Z,1026.98
2019-02-15T04:28:52.124Z,1026.98
2019-02-15T04:29:52.109Z,1026.98
2019-02-15T04:30:52.094Z,1027.00
2019-02-15T04:31:52.080Z,1026.97
2019-02-15T04:32:52.071Z,1026.98
2019-02-15T04:33:52.060Z,1026.99
2019-02-15T04:34:52.050Z,1026.98
2019-02-15T04:35:52.029Z,1026.93
2019-02-15T04:36:52.037Z,1026.96
2019-02-15T04:37:52.023Z,1026.95
2019-02-15T04:38:51.999Z,1026.95
2019-02-15T04:39:51.995Z,1026.95
2019-02-15T04:40:51.963Z,1026.95
2019-02-15T04:41:51.960Z,1026.93
2019-02-15T04:42:51.947Z,1026.93
2019-02-15T04:43:51.934Z,1026.96
2019-02-15T04:44:51.927Z,1026.91
2019-02-15T04:45:51.912Z,1026.90
2019-02-15T04:46:51.900Z,1026.91
2019-02-15T04:47:51.888Z,1026.93
2019-02-15T04:48:51.874Z,1026.96
2019-02-15T04:49:51.864Z,1026.92
2019-02-15T04:50:51.846Z,1026.92
2019-02-15T04:51:51.841Z,1026.89
2019-02-15T04:52:51.824Z,1026.92
2019-02-15T04:53:51.810Z,1026.86
2019-02-15T04:54:51.797Z,1026.90
2019-02-15T04:55:51.787Z,1026.90
2019-02-15T04:56:51.774Z,1026.88
2019-02-15T04:57:51.785Z,1026.88
2019-02-15T04:58:51.752Z,1026.89
2019-02-15T04:59:51.744Z,1026.91
2019-02-15T05:00:51.726Z,1026.88
2019-02-15T05:01:51.716Z,1026.89
2019-02-15T05:02:51.698Z,1026.86
2019-02-15T05:03:51.687Z,1026.87
2019-02-15T05:06:24.779Z,1026.86
2019-02-15T05:07:24.749Z,1026.86
2019-02-15T05:09:19.226Z,1026.86
2019-02-15T05:10:19.199Z,1026.82
2019-02-15T05:12:13.564Z,1026.85
2019-02-15T05:13:13.534Z,1026.82
2019-02-15T05:15:07.929Z,1026.76
2019-02-15T05:16:07.863Z,1026.75
2019-02-15T05:17:07.858Z,1026.74
2019-02-15T05:18:07.844Z,1026.79
2019-02-15T05:19:07.834Z,1026.74
2019-02-15T05:20:07.822Z,1026.75
2019-02-15T05:21:07.811Z,1026.75
2019-02-15T05:22:07.798Z,1026.69
2019-02-15T05:23:07.782Z,1026.72
2019-02-15T05:24:07.771Z,1026.73
2019-02-15T05:25:07.758Z,1026.76
2019-02-15T05:26:07.735Z,1026.75
2019-02-15T05:27:07.738Z,1026.73
2019-02-15T05:28:08.951Z,1026.71
2019-02-15T05:29:07.710Z,1026.72
2019-02-15T05:30:07.699Z,1026.69
2019-02-15T05:31:07.688Z,1026.74
2019-02-15T05:32:07.670Z,1026.72
2019-02-15T05:33:07.662Z,1026.73
2019-02-15T05:34:07.649Z,1026.70
2019-02-15T05:35:07.638Z,1026.71
2019-02-15T05:36:07.804Z,1026.70
2019-02-15T05:37:07.610Z,1026.69
2019-02-15T05:38:07.596Z,1026.68
2019-02-15T05:39:07.586Z,1026.68
2019-02-15T05:40:07.574Z,1026.68
2019-02-15T05:41:07.560Z,1026.70
2019-02-15T05:42:07.548Z,1026.69
2019-02-15T05:43:07.537Z,1026.71
2019-02-15T05:44:07.524Z,1026.71
2019-02-15T05:45:07.514Z,1026.69
2019-02-15T05:46:07.494Z,1026.71
2019-02-15T05:47:07.484Z,1026.66
2019-02-15T05:48:07.475Z,1026.65
2019-02-15T05:49:07.459Z,1026.65
2019-02-15T05:50:07.447Z,1026.68
2019-02-15T05:51:07.442Z,1026.66
2019-02-15T05:52:07.430Z,1026.64
2019-02-15T05:53:07.414Z,1026.70
2019-02-15T05:54:07.976Z,1026.65
2019-02-15T05:55:07.385Z,1026.68
2019-02-15T05:56:07.377Z,1026.70
2019-02-15T05:57:09.527Z,1026.72
2019-02-15T05:58:07.343Z,1026.72
2019-02-15T05:59:07.335Z,1026.69
2019-02-15T06:00:07.325Z,1026.74
2019-02-15T06:01:07.302Z,1026.74
2019-02-15T06:02:07.298Z,1026.74
2019-02-15T06:03:07.293Z,1026.76
2019-02-15T06:04:07.267Z,1026.75
2019-02-15T06:05:07.261Z,1026.74
2019-02-15T06:06:07.251Z,1026.78
2019-02-15T06:07:07.234Z,1026.77
2019-02-15T06:08:07.223Z,1026.79
2019-02-15T06:09:07.211Z,1026.80
2019-02-15T06:10:07.198Z,1026.80
2019-02-15T06:11:08.280Z,1026.84
2019-02-15T06:12:07.171Z,1026.83
2019-02-15T06:13:07.163Z,1026.80
2019-02-15T06:14:07.148Z,1026.86
2019-02-15T06:15:14.808Z,1026.83
2019-02-15T06:16:07.123Z,1026.77
2019-02-15T06:17:07.110Z,1026.80
2019-02-15T06:18:07.101Z,1026.79
2019-02-15T06:19:07.111Z,1026.79
2019-02-15T06:20:07.076Z,1026.79
2019-02-15T06:21:07.084Z,1026.80
2019-02-15T06:22:07.049Z,1026.80
2019-02-15T06:23:07.039Z,1026.78
2019-02-15T06:24:07.021Z,1026.74
2019-02-15T06:25:07.009Z,1026.79
2019-02-15T06:26:07.003Z,1026.79
2019-02-15T06:27:06.986Z,1026.83
2019-02-15T06:28:06.974Z,1026.79
2019-02-15T06:29:06.966Z,1026.81
2019-02-15T06:30:06.951Z,1026.82
2019-02-15T06:31:06.933Z,1026.82
2019-02-15T06:32:06.920Z,1026.78
2019-02-15T06:33:06.916Z,1026.82
2019-02-15T06:34:06.898Z,1026.80
2019-02-15T06:35:06.934Z,1026.84
2019-02-15T06:36:06.871Z,1026.86
2019-02-15T06:37:06.861Z,1026.89
2019-02-15T06:38:06.849Z,1026.91
2019-02-15T06:39:06.852Z,1026.96
2019-02-15T06:40:06.831Z,1026.90
2019-02-15T06:41:06.815Z,1026.92
2019-02-15T06:42:06.810Z,1026.97
2019-02-15T06:43:06.788Z,1026.98
2019-02-15T06:44:06.781Z,1026.94
2019-02-15T06:45:06.763Z,1026.97
2019-02-15T06:46:06.759Z,1026.97
2019-02-15T06:47:06.735Z,1026.97
2019-02-15T06:48:06.728Z,1026.98
2019-02-15T06:49:06.710Z,1027.01
2019-02-15T06:50:06.702Z,1026.99
2019-02-15T06:51:06.693Z,1027.01
2019-02-15T06:52:06.680Z,1027.02
2019-02-15T06:53:06.665Z,1027.00
2019-02-15T06:54:06.654Z,1027.04
2019-02-15T06:55:06.637Z,1026.98
2019-02-15T06:56:06.625Z,1027.03
2019-02-15T06:57:06.612Z,1027.08
2019-02-15T06:58:06.598Z,1027.04
2019-02-15T06:59:06.591Z,1027.10
2019-02-15T07:00:06.578Z,1027.08
2019-02-15T07:01:06.568Z,1027.11
2019-02-15T07:02:06.544Z,1027.12
2019-02-15T07:03:06.537Z,1027.07
2019-02-15T07:04:06.523Z,1027.12
2019-02-15T07:05:06.515Z,1027.10
2019-02-15T07:06:06.557Z,1027.14
2019-02-15T07:07:06.486Z,1027.08
2019-02-15T07:08:06.474Z,1027.12
2019-02-15T07:09:06.458Z,1027.14
2019-02-15T07:10:06.449Z,1027.09
2019-02-15T07:11:06.443Z,1027.14
2019-02-15T07:12:06.429Z,1027.12
2019-02-15T07:13:06.466Z,1027.16
2019-02-15T07:14:06.405Z,1027.17
2019-02-15T07:15:06.385Z,1027.17
2019-02-15T07:16:06.372Z,1027.20
2019-02-15T07:17:06.363Z,1027.16
2019-02-15T07:18:06.356Z,1027.16
2019-02-15T07:19:06.342Z,1027.15
2019-02-15T07:20:06.331Z,1027.12
2019-02-15T07:21:06.314Z,1027.12
2019-02-15T07:22:06.303Z,1027.21
2019-02-15T07:23:06.294Z,1027.19
2019-02-15T07:24:06.279Z,1027.20
2019-02-15T07:25:06.265Z,1027.20
2019-02-15T07:26:06.253Z,1027.13
2019-02-15T07:27:06.239Z,1027.21
2019-02-15T07:28:06.228Z,1027.19
2019-02-15T07:29:06.214Z,1027.22
2019-02-15T07:30:06.207Z,1027.20
2019-02-15T07:31:06.219Z,1027.23
2019-02-15T07:32:06.186Z,1027.24
2019-02-15T07:33:06.168Z,1027.26
2019-02-15T07:34:06.159Z,1027.32
2019-02-15T07:35:06.142Z,1027.26
2019-02-15T07:36:06.131Z,1027.22
2019-02-15T07:37:06.142Z,1027.27
2019-02-15T07:38:06.112Z,1027.25
2019-02-15T07:39:06.094Z,1027.27
2019-02-15T07:40:06.083Z,1027.24
2019-02-15T07:41:06.069Z,1027.26
2019-02-15T07:42:06.059Z,1027.22
2019-02-15T07:43:06.061Z,1027.26
2019-02-15T07:44:06.038Z,1027.26
2019-02-15T07:45:06.030Z,1027.27
2019-02-15T07:46:06.003Z,1027.20
2019-02-15T07:47:05.998Z,1027.18
2019-02-15T07:48:05.983Z,1027.22
2019-02-15T07:49:05.977Z,1027.23
2019-02-15T07:50:05.963Z,1027.23
2019-02-15T07:51:09.723Z,1027.31
2019-02-15T07:52:05.943Z,1027.28
2019-02-15T07:53:06.177Z,1027.27
2019-02-15T07:54:05.921Z,1027.28
2019-02-15T07:55:05.906Z,1027.25
2019-02-15T07:56:05.897Z,1027.32
2019-02-15T07:57:05.881Z,1027.21
2019-02-15T07:58:05.871Z,1027.21
2019-02-15T07:59:05.861Z,1027.22
2019-02-15T08:00:05.845Z,1027.24
2019-02-15T08:01:05.833Z,1027.21
2019-02-15T08:02:05.823Z,1027.19
2019-02-15T08:03:05.812Z,1027.16
2019-02-15T08:04:06.917Z,1027.19
2019-02-15T08:05:05.795Z,1027.19
2019-02-15T08:06:05.779Z,1027.17
2019-02-15T08:07:05.768Z,1027.16
2019-02-15T08:08:05.756Z,1027.19
2019-02-15T08:09:05.748Z,1027.18
2019-02-15T08:10:05.732Z,1027.18
2019-02-15T08:11:05.721Z,1027.15
2019-02-15T08:12:05.718Z,1027.16
2019-02-15T08:13:05.697Z,1027.18
2019-02-15T08:14:14.350Z,1027.18
2019-02-15T08:15:05.679Z,1027.18
2019-02-15T08:16:05.668Z,1027.17
2019-02-15T08:17:05.657Z,1027.14
2019-02-15T08:18:05.644Z,1027.16
2019-02-15T08:19:05.632Z,1027.16
2019-02-15T08:20:05.623Z,1027.14
2019-02-15T08:21:05.608Z,1027.13
2019-02-15T08:22:05.599Z,1027.12
2019-02-15T08:23:05.593Z,1027.13
2019-02-15T08:24:05.581Z,1027.08
2019-02-15T08:25:05.566Z,1027.10
2019-02-15T08:26:05.557Z,1027.07
2019-02-15T08:27:05.548Z,1027.10
2019-02-15T08:28:05.539Z,1027.09
2019-02-15T08:29:05.530Z,1027.09
2019-02-15T08:30:05.514Z,1027.08
2019-02-15T08:31:05.503Z,1027.09
2019-02-15T08:32:05.491Z,1027.10
2019-02-15T08:33:05.478Z,1027.09
2019-02-15T08:34:05.473Z,1027.12
2019-02-15T08:35:05.461Z,1027.07
2019-02-15T08:36:05.452Z,1027.15
2019-02-15T08:37:05.445Z,1027.12
2019-02-15T08:38:05.429Z,1027.08
2019-02-15T08:39:05.423Z,1027.04
2019-02-15T08:40:05.413Z,1027.06
2019-02-15T08:41:05.403Z,1027.03
2019-02-15T08:42:05.387Z,1027.04
2019-02-15T08:43:05.376Z,1027.05
2019-02-15T08:44:05.363Z,1027.01
2019-02-15T08:45:05.359Z,1027.02
2019-02-15T08:46:05.347Z,1026.99
2019-02-15T08:47:05.335Z,1027.01
2019-02-15T08:48:05.385Z,1027.01
2019-02-15T08:49:05.332Z,1026.99
2019-02-15T08:50:05.304Z,1026.96
2019-02-15T08:51:05.290Z,1027.00
2019-02-15T08:52:05.279Z,1027.00
2019-02-15T08:53:05.304Z,1027.02
2019-02-15T08:54:05.258Z,1026.99
2019-02-15T08:55:05.252Z,1026.99
2019-02-15T08:56:05.242Z,1026.95
2019-02-15T08:57:05.234Z,1027.00
2019-02-15T08:58:05.219Z,1026.97
2019-02-15T08:59:05.209Z,1026.95
2019-02-15T09:00:05.201Z,1026.99
2019-02-15T09:01:05.182Z,1026.94
2019-02-15T09:02:05.181Z,1026.92
2019-02-15T09:03:05.172Z,1026.89
2019-02-15T09:04:05.155Z,1026.94
2019-02-15T09:05:05.147Z,1026.92
2019-02-15T09:06:05.139Z,1026.88
2019-02-15T09:07:05.126Z,1026.87
2019-02-15T09:08:05.116Z,1026.87
2019-02-15T09:09:05.108Z,1026.87
2019-02-15T09:10:05.102Z,1026.85
2019-02-15T09:11:05.090Z,1026.83
2019-02-15T09:12:05.075Z,1026.80
2019-02-15T09:13:05.067Z,1026.79
2019-02-15T09:14:05.060Z,1026.78
2019-02-15T09:15:05.039Z,1026.77
2019-02-15T09:16:10.367Z,1026.81
2019-02-15T09:17:05.024Z,1026.76
2019-02-15T09:18:05.013Z,1026.78
2019-02-15T09:19:05.013Z,1026.83
2019-02-15T09:20:05.002Z,1026.76
2019-02-15T09:21:04.986Z,1026.80
2019-02-15T09:22:04.981Z,1026.75
2019-02-15T09:23:04.966Z,1026.74
2019-02-15T09:24:04.953Z,1026.73
2019-02-15T09:25:04.947Z,1026.72
2019-02-15T09:26:04.945Z,1026.73
2019-02-15T09:27:04.930Z,1026.72
2019-02-15T09:28:04.922Z,1026.69
2019-02-15T09:29:04.908Z,1026.67
2019-02-15T09:30:04.900Z,1026.63
2019-02-15T09:31:04.891Z,1026.67
2019-02-15T09:32:04.883Z,1026.64
2019-02-15T09:33:04.870Z,1026.57
2019-02-15T09:34:04.863Z,1026.60
2019-02-15T09:35:04.853Z,1026.61
2019-02-15T09:36:04.844Z,1026.63
2019-02-15T09:37:04.832Z,1026.62
2019-02-15T09:38:04.828Z,1026.60
2019-02-15T09:39:04.817Z,1026.55
2019-02-15T09:40:04.808Z,1026.58
2019-02-15T09:41:04.799Z,1026.55
2019-02-15T09:42:04.785Z,1026.57
2019-02-15T09:43:04.780Z,1026.55
2019-02-15T09:44:04.772Z,1026.53
2019-02-15T09:45:04.762Z,1026.56
2019-02-15T09:46:04.750Z,1026.54
2019-02-15T09:47:04.740Z,1026.49
2019-02-15T09:48:04.733Z,1026.52
2019-02-15T09:49:04.719Z,1026.49
2019-02-15T09:50:04.713Z,1026.48
2019-02-15T09:51:04.712Z,1026.47
2019-02-15T09:52:04.701Z,1026.46
2019-02-15T09:53:04.687Z,1026.47
2019-02-15T09:54:04.679Z,1026.45
2019-02-15T09:55:04.668Z,1026.43
2019-02-15T09:56:04.658Z,1026.44
2019-02-15T09:57:04.648Z,1026.47
2019-02-15T09:58:04.640Z,1026.50
2019-02-15T09:59:04.636Z,1026.42
2019-02-15T10:00:04.624Z,1026.38
2019-02-15T10:01:04.617Z,1026.41
2019-02-15T10:02:04.607Z,1026.37
2019-02-15T10:03:04.597Z,1026.40
2019-02-15T10:04:04.590Z,1026.37
2019-02-15T10:05:04.582Z,1026.40
2019-02-15T10:06:04.573Z,1026.39
2019-02-15T10:07:04.561Z,1026.46
2019-02-15T10:08:04.550Z,1026.39
2019-02-15T10:09:04.535Z,1026.37
2019-02-15T10:10:04.529Z,1026.36
2019-02-15T10:11:04.529Z,1026.35
2019-02-15T10:12:04.520Z,1026.40
2019-02-15T10:13:04.514Z,1026.38
2019-02-15T10:14:04.500Z,1026.41
2019-02-15T10:15:04.497Z,1026.41
2019-02-15T10:16:04.482Z,1026.34
2019-02-15T10:17:04.489Z,1026.38
2019-02-15T10:18:04.471Z,1026.33
2019-02-15T10:19:04.458Z,1026.32
2019-02-15T10:20:04.447Z,1026.37
2019-02-15T10:21:04.441Z,1026.35
2019-02-15T10:22:04.437Z,1026.33
2019-02-15T10:23:04.425Z,1026.40
2019-02-15T10:24:04.419Z,1026.38
2019-02-15T10:25:04.408Z,1026.39
2019-02-15T10:26:04.400Z,1026.44
2019-02-15T10:27:04.391Z,1026.51
2019-02-15T10:28:04.380Z,1026.41
2019-02-15T10:29:04.372Z,1026.44
2019-02-15T10:30:04.365Z,1026.42
2019-02-15T10:31:04.357Z,1026.42
2019-02-15T10:32:04.343Z,1026.46
2019-02-15T10:33:04.340Z,1026.41
2019-02-15T10:34:04.334Z,1026.48
2019-02-15T10:35:04.331Z,1026.41
2019-02-15T10:36:04.320Z,1026.46
2019-02-15T10:37:04.316Z,1026.44
2019-02-15T10:38:04.299Z,1026.45
2019-02-15T10:39:04.294Z,1026.43
2019-02-15T10:40:04.278Z,1026.40
2019-02-15T10:41:04.275Z,1026.45
2019-02-15T10:42:04.264Z,1026.39
2019-02-15T10:43:04.262Z,1026.41
2019-02-15T10:44:04.258Z,1026.44
2019-02-15T10:45:04.247Z,1026.41
2019-02-15T10:46:04.245Z,1026.39
2019-02-15T10:47:04.228Z,1026.36
2019-02-15T10:48:04.219Z,1026.33
2019-02-15T10:49:04.214Z,1026.36
2019-02-15T10:50:05.158Z,1026.36
2019-02-15T10:51:04.196Z,1026.27
2019-02-15T10:52:04.188Z,1026.38
2019-02-15T10:53:04.179Z,1026.33
2019-02-15T10:54:04.171Z,1026.38
2019-02-15T10:55:04.170Z,1026.30
2019-02-15T10:56:04.159Z,1026.31
2019-02-15T10:57:04.162Z,1026.25
2019-02-15T10:58:04.144Z,1026.22
2019-02-15T10:59:04.135Z,1026.28
2019-02-15T11:00:04.118Z,1026.29
2019-02-15T11:01:04.118Z,1026.23
2019-02-15T11:02:04.134Z,1026.29
2019-02-15T11:03:04.108Z,1026.26
2019-02-15T11:04:04.097Z,1026.29
2019-02-15T11:05:04.088Z,1026.26
2019-02-15T11:06:04.081Z,1026.25
2019-02-15T11:07:04.075Z,1026.20
2019-02-15T11:08:04.066Z,1026.23
2019-02-15T11:09:04.060Z,1026.18
2019-02-15T11:10:04.051Z,1026.17
2019-02-15T11:11:04.042Z,1026.18
2019-02-15T11:12:04.039Z,1026.19
2019-02-15T11:13:04.027Z,1026.20
2019-02-15T11:14:04.019Z,1026.19
2019-02-15T11:15:04.018Z,1026.24
2019-02-15T11:16:04.008Z,1026.16
2019-02-15T11:17:04.000Z,1026.22
2019-02-15T11:18:03.994Z,1026.21
2019-02-15T11:19:03.984Z,1026.21
2019-02-15T11:20:03.978Z,1026.13
2019-02-15T11:21:03.966Z,1026.13
2019-02-15T11:22:03.961Z,1026.16
2019-02-15T11:23:03.958Z,1026.11
2019-02-15T11:24:03.951Z,1026.08
2019-02-15T11:25:03.936Z,1026.10
2019-02-15T11:26:04.562Z,1026.10
2019-02-15T11:27:03.931Z,1026.09
2019-02-15T11:28:03.917Z,1026.13
2019-02-15T11:29:03.909Z,1026.06
2019-02-15T11:30:03.906Z,1026.10
2019-02-15T11:31:03.894Z,1026.08
2019-02-15T11:32:03.886Z,1026.10
2019-02-15T11:33:03.878Z,1026.06
2019-02-15T11:34:03.872Z,1026.06
2019-02-15T11:35:03.869Z,1025.99
2019-02-15T11:36:03.858Z,1026.03
2019-02-15T11:37:03.843Z,1025.99
2019-02-15T11:38:03.844Z,1025.95
2019-02-15T11:39:03.840Z,1025.98
2019-02-15T11:40:03.833Z,1025.92
2019-02-15T11:41:10.880Z,1025.93
2019-02-15T11:42:03.818Z,1025.90
2019-02-15T11:43:03.809Z,1025.91
2019-02-15T11:44:03.803Z,1025.88
2019-02-15T11:45:03.795Z,1025.89
2019-02-15T11:46:03.793Z,1025.87
2019-02-15T11:47:03.785Z,1025.89
2019-02-15T11:48:03.778Z,1025.83
2019-02-15T11:49:03.770Z,1025.82
2019-02-15T11:50:03.763Z,1025.83
2019-02-15T11:51:03.754Z,1025.79
2019-02-15T11:52:03.748Z,1025.78
2019-02-15T11:53:03.798Z,1025.77
2019-02-15T11:54:03.738Z,1025.75
2019-02-15T11:55:03.724Z,1025.70
2019-02-15T11:56:03.716Z,1025.71
2019-02-15T11:57:03.708Z,1025.69
2019-02-15T11:58:03.703Z,1025.68
2019-02-15T11:59:03.700Z,1025.71
2019-02-15T12:00:03.695Z,1025.62
2019-02-15T12:01:03.687Z,1025.68
2019-02-15T12:02:06.180Z,1025.56
2019-02-15T12:03:03.670Z,1025.54
2019-02-15T12:04:03.665Z,1025.55
2019-02-15T12:05:03.653Z,1025.61
2019-02-15T12:06:03.916Z,1025.55
2019-02-15T12:07:03.646Z,1025.53
2019-02-15T12:08:03.639Z,1025.55
2019-02-15T12:09:03.629Z,1025.48
2019-02-15T12:10:03.615Z,1025.48